Time;durP1;ratioP1;P1;durP2;ratioP2;P2;SDS_P1;SDS_P2;PMS_P1;PMS_P2;Temp;Humidity;BMP_temperature;BMP_pressure;BME280_temperature;BME280_humidity;BME280_pressure;Samples;Min_cycle;Max_cycle;Signal;HPM_P1;HPM_P2
2022/12/21 00:01:15;;;;;;;524.28;273.08;;;;;;;4.45;90.95;100435.56;5025763;28;20492;-76
2022/12/21 00:03:41;;;;;;;1999.90;999.90;;;;;;;4.47;90.58;100437.38;5030743;28;20087;-76
2022/12/21 00:06:07;;;;;;;34.15;32.55;;;;;;;4.54;90.40;100440.97;5030497;28;20045;-76
2022/12/21 00:08:37;;;;;;;1999.90;999.90;;;;;;;4.56;90.40;100448.00;5030524;28;20095;-76
2022/12/21 00:11:04;;;;;;;27.40;25.90;;;;;;;4.67;89.99;100445.56;5026978;28;20033;-76
2022/12/21 00:13:31;;;;;;;22.90;21.50;;;;;;;4.74;89.17;100436.06;5030919;28;20042;-76
2022/12/21 00:16:01;;;;;;;20.75;19.45;;;;;;;4.81;89.42;100430.06;5030638;28;20029;-76
2022/12/21 00:18:26;;;;;;;22.60;21.20;;;;;;;4.83;89.51;100434.47;5034313;28;20033;-76
2022/12/21 00:21:00;;;;;;;22.00;20.60;;;;;;;4.86;89.58;100435.38;5034142;28;20518;-76
2022/12/21 00:23:26;;;;;;;23.77;22.25;;;;;;;4.86;90.32;100436.25;5034282;28;20029;-76
2022/12/21 00:25:51;;;;;;;22.52;21.13;;;;;;;4.85;90.02;100434.50;5033778;28;20048;-76
2022/12/21 00:28:16;;;;;;;22.10;20.60;;;;;;;4.89;89.16;100435.44;5034059;28;20038;-75
2022/12/21 00:30:41;;;;;;;22.30;20.90;;;;;;;4.89;88.59;100438.03;5033996;28;20059;-76
2022/12/21 00:33:07;;;;;;;22.00;20.50;;;;;;;4.88;88.52;100431.94;5034098;28;20029;-76
2022/12/21 00:35:32;;;;;;;21.13;19.73;;;;;;;4.86;87.96;100438.88;5033619;28;20095;-76
2022/12/21 00:37:58;;;;;;;22.13;20.65;;;;;;;4.83;88.65;100431.88;5028977;28;20558;-76
2022/12/21 00:40:25;;;;;;;20.77;19.30;;;;;;;4.85;88.42;100431.91;5032912;28;20404;-76
2022/12/21 00:42:50;;;;;;;22.75;21.25;;;;;;;4.80;88.85;100423.09;5033762;28;20025;-76
2022/12/21 00:45:15;;;;;;;23.50;22.00;;;;;;;4.88;88.72;100421.47;5033660;28;20038;-76
2022/12/21 00:47:41;;;;;;;21.15;19.75;;;;;;;4.88;88.51;100425.84;5031894;28;20037;-76
2022/12/21 00:50:07;;;;;;;22.95;21.35;;;;;;;4.84;88.23;100420.53;5033713;28;20041;-76
2022/12/21 00:52:32;;;;;;;22.85;21.27;;;;;;;4.80;88.27;100428.34;5033705;28;20025;-76
2022/12/21 00:54:57;;;;;;;23.02;21.50;;;;;;;4.72;88.83;100425.59;5033740;28;20496;-76
2022/12/21 00:57:23;;;;;;;22.92;21.33;;;;;;;4.72;88.53;100409.03;5033374;28;20542;-76
2022/12/21 00:59:48;;;;;;;22.83;21.30;;;;;;;4.69;88.29;100419.41;5032585;28;20073;-76
2022/12/21 01:02:14;;;;;;;22.67;21.17;;;;;;;4.61;89.04;100424.53;5032142;28;20074;-76
2022/12/21 01:04:41;;;;;;;21.73;20.23;;;;;;;4.61;88.96;100422.81;5032151;28;20510;-76
2022/12/21 01:07:07;;;;;;;21.25;19.75;;;;;;;4.68;89.18;100422.91;5031927;28;20072;-75
2022/12/21 01:09:32;;;;;;;22.55;21.05;;;;;;;4.69;88.81;100419.41;5032028;28;20072;-76
2022/12/21 01:11:57;;;;;;;22.23;20.60;;;;;;;4.66;89.31;100422.84;5031776;28;20120;-76
2022/12/21 01:14:23;;;;;;;21.00;19.60;;;;;;;4.71;89.06;100408.13;5033261;28;20037;-76
2022/12/21 01:16:49;;;;;;;23.20;21.60;;;;;;;4.64;89.26;100410.63;5032984;28;20041;-76
2022/12/21 01:19:14;;;;;;;21.95;20.45;;;;;;;4.59;89.30;100408.84;5031911;28;20044;-76
2022/12/21 01:21:40;;;;;;;33.22;31.38;;;;;;;4.66;89.79;100409.78;5031814;28;20041;-76
2022/12/21 01:24:05;;;;;;;50.03;46.58;;;;;;;4.68;89.28;100408.09;5031590;28;20033;-76
2022/12/21 01:26:31;;;;;;;11.55;9.98;;;;;;;4.76;89.47;100403.84;5030855;28;20447;-76
2022/12/21 01:28:57;;;;;;;13.43;12.35;;;;;;;4.82;89.52;100403.06;5032865;28;20045;-76
2022/12/21 01:31:23;;;;;;;11.57;10.57;;;;;;;4.86;89.19;100406.63;5032923;28;20030;-76
2022/12/21 01:33:48;;;;;;;13.75;12.75;;;;;;;4.74;89.68;100396.84;5032882;28;20044;-76
2022/12/21 01:36:16;;;;;;;12.38;11.48;;;;;;;4.80;89.25;100395.22;5032556;28;20033;-76
2022/12/21 01:38:42;;;;;;;10.52;9.65;;;;;;;4.87;89.73;100392.69;5032539;28;20030;-76
2022/12/21 01:41:22;;;;;;;9.55;8.75;;;;;;;4.94;89.59;100379.72;5040489;28;20049;-75
2022/12/21 01:43:53;;;;;;;9.02;8.32;;;;;;;4.96;89.23;100378.00;5029893;28;20044;-76
2022/12/21 01:46:39;;;;;;;10.32;9.60;;;;;;;5.01;89.09;100376.34;5032437;28;20092;-76
2022/12/21 01:49:14;;;;;;;9.27;8.57;;;;;;;5.10;88.56;100369.47;5030707;28;20492;-76
2022/12/21 01:51:44;;;;;;;12.88;11.98;;;;;;;5.03;89.27;100364.16;5039092;28;20092;-76
2022/12/21 01:54:17;;;;;;;54.40;50.47;;;;;;;5.00;89.75;100368.44;5031287;28;20415;-76
2022/12/21 01:56:46;;;;;;;453.48;420.33;;;;;;;4.94;90.02;100363.16;5029228;28;20033;-75
2022/12/21 01:59:19;;;;;;;427.52;404.88;;;;;;;4.97;90.16;100368.41;5031117;28;20083;-76
2022/12/21 02:01:45;;;;;;;64.57;60.65;;;;;;;4.97;90.59;100365.81;5030971;28;20036;-76
2022/12/21 02:04:11;;;;;;;64.68;60.55;;;;;;;4.93;90.66;100366.63;5031088;28;20120;-76
2022/12/21 02:06:45;;;;;;;738.70;686.03;;;;;;;4.94;90.19;100357.91;5032043;28;20495;-76
2022/12/21 02:09:14;;;;;;;873.70;815.78;;;;;;;4.86;91.17;100357.81;5027635;28;20546;-76
2022/12/21 02:11:41;;;;;;;780.33;732.78;;;;;;;4.89;91.74;100341.28;5030725;28;20478;-76
2022/12/21 02:14:11;;;;;;;799.30;752.78;;;;;;;4.89;91.68;100333.44;5030821;28;20088;-76
2022/12/21 02:17:15;;;;;;;336.70;319.40;;;;;;;4.91;91.94;100337.84;5035664;28;20065;-76
2022/12/21 02:20:08;;;;;;;204.00;194.20;;;;;;;4.97;92.07;100330.06;5028276;28;20092;-76
2022/12/21 02:22:56;;;;;;;350.98;333.75;;;;;;;5.10;91.49;100338.06;5021736;28;20065;-76
2022/12/21 02:25:30;;;;;;;184.18;174.50;;;;;;;5.12;91.13;100329.41;5030308;28;20045;-76
2022/12/21 02:28:31;;;;;;;92.07;87.00;;;;;;;5.13;91.37;100330.25;5028210;28;20033;-76
2022/12/21 02:31:32;;;;;;;84.20;79.40;;;;;;;5.15;91.30;100331.16;5029718;28;20037;-76
2022/12/21 02:34:19;;;;;;;53.58;50.45;;;;;;;5.20;91.50;100346.06;5031460;28;20488;-76
2022/12/21 02:36:59;;;;;;;171.32;161.95;;;;;;;5.25;91.33;100339.16;5030248;28;20088;-75
2022/12/21 02:39:46;;;;;;;183.82;173.65;;;;;;;5.30;90.51;100336.59;5023163;28;20026;-76
2022/12/21 02:45:27;;;;;;;109.25;103.70;;;;;;;5.34;91.31;100342.72;5030490;28;20087;-76
2022/12/21 02:48:00;;;;;;;81.35;76.82;;;;;;;5.38;90.69;100339.31;5029321;28;20029;-76
2022/12/21 02:50:34;;;;;;;347.73;330.83;;;;;;;5.44;91.39;100339.38;5030250;28;20084;-75
2022/12/21 02:53:06;;;;;;;93.40;88.65;;;;;;;5.48;90.97;100346.41;5030256;28;20041;-76
2022/12/21 02:55:31;;;;;;;;;;;;;;;5.52;91.32;100335.09;5031713;28;20463;-76
2022/12/21 02:58:27;;;;;;;46.38;43.70;;;;;;;5.60;91.30;100338.66;5030115;28;19948;-75
2022/12/21 03:01:06;;;;;;;109.45;103.90;;;;;;;5.50;91.63;100336.81;5005743;28;20038;-76
2022/12/21 03:03:47;;;;;;;257.55;244.20;;;;;;;5.44;92.18;100334.13;5029973;28;20507;-76
2022/12/21 03:06:58;;;;;;;394.98;372.73;;;;;;;5.48;92.81;100331.56;5040620;28;20029;-76
2022/12/21 03:09:52;;;;;;;210.93;200.65;;;;;;;5.43;92.92;100321.91;5022933;28;20042;-76
2022/12/21 03:12:44;;;;;;;155.90;147.77;;;;;;;5.36;93.11;100338.41;5027044;28;20038;-76
2022/12/21 03:15:47;;;;;;;21.77;8.38;;;;;;;5.31;94.11;100329.63;5036942;28;20046;-76
2022/12/21 03:18:26;;;;;;;20.00;8.25;;;;;;;5.31;94.03;100330.50;5026930;28;20092;-76
2022/12/21 03:21:16;;;;;;;23.92;8.63;;;;;;;5.30;94.29;100309.56;5029753;28;20415;-76
2022/12/21 03:24:04;;;;;;;24.70;9.07;;;;;;;5.26;95.12;100314.72;5028664;28;20037;-76
2022/12/21 03:26:36;;;;;;;23.23;10.13;;;;;;;5.26;95.26;100306.88;5029353;28;20046;-76
2022/12/21 03:29:03;;;;;;;22.30;9.95;;;;;;;5.21;95.30;100311.22;5031132;28;20506;-76
2022/12/21 03:31:34;;;;;;;20.85;9.27;;;;;;;5.25;95.83;100306.88;5031137;28;20050;-75
2022/12/21 03:34:08;;;;;;;22.88;10.32;;;;;;;5.33;95.19;100299.13;5031213;28;20033;-76
2022/12/21 03:36:42;;;;;;;25.40;9.77;;;;;;;5.24;96.37;100310.38;5027050;28;20045;-75
2022/12/21 03:39:12;;;;;;;25.63;9.85;;;;;;;5.17;97.31;100304.16;5030980;28;20041;-76
2022/12/21 03:41:43;;;;;;;20.02;8.93;;;;;;;5.21;97.74;100299.84;5030980;28;20033;-76
2022/12/21 03:44:15;;;;;;;22.40;8.63;;;;;;;5.30;96.92;100301.72;5018862;28;20176;-76
2022/12/21 03:46:55;;;;;;;24.40;9.82;;;;;;;5.37;96.65;100303.50;5030842;28;20107;-76
2022/12/21 03:49:25;;;;;;;20.88;8.48;;;;;;;5.38;97.60;100293.06;5028463;28;20041;-75
2022/12/21 03:51:55;;;;;;;20.42;8.85;;;;;;;5.34;97.79;100300.88;5033749;28;20083;-76
2022/12/21 03:54:29;;;;;;;20.20;9.48;;;;;;;5.24;98.43;100300.78;5034734;28;20045;-76
2022/12/21 03:56:55;;;;;;;20.27;8.50;;;;;;;5.27;99.27;100297.31;5031590;28;20064;-76
2022/12/21 03:59:21;;;;;;;23.60;9.63;;;;;;;5.28;99.47;100288.59;5034678;28;20033;-76
2022/12/21 04:02:20;;;;;;;21.90;9.82;;;;;;;5.27;100.00;100290.34;5034575;28;20041;-76
2022/12/21 04:05:13;;;;;;;20.70;9.30;;;;;;;5.31;100.00;100283.38;5034238;28;20492;-76
2022/12/21 04:07:40;;;;;;;;;;;;;;;5.31;100.00;100279.91;5032170;28;20144;-76
2022/12/21 04:10:09;;;;;;;18.75;8.05;;;;;;;5.33;99.78;100278.19;5034139;28;19917;-76
2022/12/21 04:12:37;;;;;;;21.73;8.55;;;;;;;5.34;99.66;100282.53;5034270;28;20094;-76
2022/12/21 04:15:23;;;;;;;21.98;9.63;;;;;;;5.35;99.07;100289.56;5034207;28;20033;-76
2022/12/21 04:17:50;;;;;;;23.23;9.57;;;;;;;5.28;99.47;100289.47;5032713;28;20518;-76
2022/12/21 04:20:23;;;;;;;21.00;9.70;;;;;;;5.28;99.50;100286.84;5034222;28;20248;-76
2022/12/21 04:28:26;;;;;;;19.45;9.00;;;;;;;5.37;99.39;100285.19;5030216;28;20044;-76
2022/12/21 04:30:52;;;;;;;18.50;8.27;;;;;;;5.40;98.97;100283.50;5033979;28;20088;-76
2022/12/21 04:33:19;;;;;;;23.70;10.00;;;;;;;5.40;98.46;100280.88;5033911;28;20496;-76
2022/12/21 04:38:31;;;;;;;22.15;10.13;;;;;;;5.40;98.35;100282.63;5032646;28;20037;-76
2022/12/21 04:40:57;;;;;;;21.02;8.77;;;;;;;5.36;98.53;100278.22;5033703;28;20061;-76
2022/12/21 04:43:24;;;;;;;21.73;9.55;;;;;;;5.35;98.74;100279.09;5033978;28;20550;-76
2022/12/21 04:46:05;;;;;;;21.67;9.18;;;;;;;5.37;98.76;100278.25;5033632;28;20128;-76
2022/12/21 04:48:30;;;;;;;20.85;8.52;;;;;;;5.36;98.42;100271.22;5032334;28;20127;-75
2022/12/21 04:50:56;;;;;;;22.52;10.75;;;;;;;5.37;98.97;100273.00;5033498;28;20496;-76
2022/12/21 04:53:22;;;;;;;29.88;13.27;;;;;;;5.34;99.15;100272.06;5015922;28;20029;-76
2022/12/21 04:55:47;;;;;;;21.83;10.65;;;;;;;5.35;99.07;100277.34;5033331;28;20064;-75
2022/12/21 04:58:13;;;;;;;24.75;11.82;;;;;;;5.36;99.34;100278.22;5033560;28;20104;-76
2022/12/21 05:00:38;;;;;;;22.17;10.57;;;;;;;5.33;99.28;100278.19;5033542;28;20029;-76
2022/12/21 05:03:04;;;;;;;22.02;11.63;;;;;;;5.33;99.55;100270.34;5033080;28;20641;-76
2022/12/21 05:05:30;;;;;;;21.85;11.75;;;;;;;5.27;100.00;100269.41;5033074;28;20044;-76
2022/12/21 05:07:55;;;;;;;24.48;11.15;;;;;;;5.30;100.00;100267.69;5033234;28;20033;-76
2022/12/21 05:10:21;;;;;;;19.83;11.00;;;;;;;5.27;100.00;100268.53;5033261;28;20044;-75
2022/12/21 05:12:46;;;;;;;25.20;12.40;;;;;;;5.18;100.00;100269.28;5032555;28;20133;-76
2022/12/21 05:15:13;;;;;;;25.55;12.73;;;;;;;5.12;100.00;100264.00;5033162;28;20488;-76
2022/12/21 05:17:39;;;;;;;25.42;12.18;;;;;;;5.17;100.00;100264.94;5032886;28;20037;-76
2022/12/21 05:20:05;;;;;;;22.75;12.70;;;;;;;5.15;100.00;100266.63;5031919;28;20498;-76
2022/12/21 05:22:30;;;;;;;24.13;12.65;;;;;;;5.12;99.87;100260.50;5032998;28;20040;-76
2022/12/21 05:24:56;;;;;;;30.25;15.50;;;;;;;5.16;100.00;100265.81;5033002;28;20033;-76
2022/12/21 05:27:21;;;;;;;29.92;15.52;;;;;;;5.12;100.00;100264.00;5032809;28;20146;-75
2022/12/21 05:29:46;;;;;;;28.23;12.80;;;;;;;5.10;100.00;100267.44;5031362;28;20033;-76
2022/12/21 05:32:12;;;;;;;23.48;12.63;;;;;;;5.12;100.00;100256.16;5032768;28;20377;-76
2022/12/21 05:34:37;;;;;;;23.38;12.27;;;;;;;5.20;100.00;100262.34;5031554;28;20450;-76
2022/12/21 05:37:02;;;;;;;25.33;12.93;;;;;;;5.25;100.00;100258.03;5032597;28;20495;-76
2022/12/21 05:39:27;;;;;;;26.67;11.90;;;;;;;5.26;100.00;100257.16;5032627;28;20479;-76
2022/12/21 05:41:54;;;;;;;26.75;12.88;;;;;;;5.34;100.00;100254.63;5032757;28;20573;-76
2022/12/21 05:44:20;;;;;;;24.40;12.57;;;;;;;5.34;100.00;100253.75;5032731;28;20643;-76
2022/12/21 05:46:45;;;;;;;24.55;11.93;;;;;;;5.38;99.63;100251.19;5031178;28;20052;-76
2022/12/21 05:49:11;;;;;;;31.70;13.75;;;;;;;5.32;100.00;100252.84;5032156;28;20507;-76
2022/12/21 05:51:36;;;;;;;26.13;13.40;;;;;;;5.24;100.00;100242.34;5032418;28;20040;-76
2022/12/21 05:54:01;;;;;;;25.02;13.13;;;;;;;5.23;100.00;100249.28;5032517;28;20037;-76
2022/12/21 05:56:27;;;;;;;26.75;13.45;;;;;;;5.26;100.00;100246.69;5032161;28;20033;-76
2022/12/21 05:58:52;;;;;;;24.17;12.93;;;;;;;5.25;100.00;100247.56;5032663;28;20043;-76
2022/12/21 06:01:17;;;;;;;24.08;12.77;;;;;;;5.25;100.00;100254.53;5032225;28;20067;-76
2022/12/21 06:03:43;;;;;;;25.90;13.05;;;;;;;5.29;100.00;100245.84;5032205;28;20107;-76
2022/12/21 06:06:14;;;;;;;28.02;14.68;;;;;;;5.35;100.00;100252.91;5031875;28;20040;-76
2022/12/21 06:08:40;;;;;;;24.65;13.00;;;;;;;5.37;100.00;100243.31;5032045;28;20143;-76
2022/12/21 06:11:10;;;;;;;36.08;18.73;;;;;;;5.42;100.00;100247.75;5012568;28;20678;-76
2022/12/21 06:13:36;;;;;;;24.33;13.13;;;;;;;5.47;99.86;100242.56;5029346;28;20148;-76
2022/12/21 06:16:08;;;;;;;25.70;12.30;;;;;;;5.29;100.00;100240.63;5040659;28;20113;-76
2022/12/21 06:18:34;;;;;;;28.95;14.07;;;;;;;5.17;100.00;100249.22;5027932;28;20541;-76
2022/12/21 06:20:59;;;;;;;27.23;12.55;;;;;;;5.20;100.00;100249.25;5030525;28;20504;-76
2022/12/21 06:23:25;;;;;;;29.08;14.43;;;;;;;5.18;100.00;100243.13;5031918;28;20033;-76
2022/12/21 06:25:57;;;;;;;27.17;13.32;;;;;;;5.18;100.00;100247.47;5030390;28;20048;-76
2022/12/21 06:28:24;;;;;;;31.15;12.38;;;;;;;5.14;100.00;100249.19;5031641;28;20041;-75
2022/12/21 06:30:50;;;;;;;25.10;12.07;;;;;;;5.19;100.00;100252.75;5031650;28;20492;-76
2022/12/21 06:33:16;;;;;;;23.60;11.77;;;;;;;5.20;100.00;100246.63;5030531;28;20037;-76
2022/12/21 06:35:41;;;;;;;22.20;11.93;;;;;;;5.25;100.00;100244.09;5031484;28;20124;-76
2022/12/21 06:38:07;;;;;;;29.45;13.18;;;;;;;5.16;100.00;100244.88;5031562;28;20033;-76
2022/12/21 06:40:32;;;;;;;31.98;12.90;;;;;;;5.14;100.00;100251.81;5031744;28;20045;-76
2022/12/21 06:42:57;;;;;;;23.50;11.77;;;;;;;5.19;100.00;100257.09;5031517;28;20033;-76
2022/12/21 06:45:23;;;;;;;25.25;11.88;;;;;;;5.18;100.00;100240.50;5031339;28;20045;-76
2022/12/21 06:47:54;;;;;;;24.33;11.95;;;;;;;5.18;100.00;100253.59;5031446;28;20037;-76
2022/12/21 06:50:22;;;;;;;26.92;11.98;;;;;;;5.23;100.00;100246.66;5031501;28;20045;-76
2022/12/21 06:52:49;;;;;;;43.03;16.73;;;;;;;5.28;100.00;100244.09;5031215;28;20480;-76
2022/12/21 06:55:15;;;;;;;29.67;13.05;;;;;;;5.32;100.00;100250.25;5031155;28;20038;-76
2022/12/21 06:57:41;;;;;;;22.95;11.02;;;;;;;5.27;100.00;100248.47;5029516;28;20132;-76
2022/12/21 07:00:09;;;;;;;29.88;12.88;;;;;;;5.22;100.00;100249.28;5031219;28;20045;-76
2022/12/21 07:02:35;;;;;;;25.60;10.88;;;;;;;5.21;100.00;100250.13;5031073;28;20091;-76
2022/12/21 07:05:00;;;;;;;21.00;10.38;;;;;;;5.28;100.00;100244.97;5031360;28;20048;-76
2022/12/21 07:07:25;;;;;;;24.52;9.98;;;;;;;5.33;100.00;100252.88;5031022;28;20123;-76
2022/12/21 07:09:50;;;;;;;32.63;11.30;;;;;;;5.25;100.00;100247.56;5031199;28;20088;-75
2022/12/21 07:12:16;;;;;;;28.95;12.57;;;;;;;5.21;100.00;100252.75;5029759;28;20110;-76
2022/12/21 07:14:41;;;;;;;21.58;10.32;;;;;;;5.21;100.00;100256.25;5031120;28;20139;-76
2022/12/21 07:17:06;;;;;;;23.23;10.52;;;;;;;5.18;100.00;100257.94;5031009;28;20108;-76
2022/12/21 07:19:32;;;;;;;25.52;10.73;;;;;;;5.14;100.00;100257.03;5030831;28;20486;-76
2022/12/21 07:21:57;;;;;;;23.92;10.32;;;;;;;5.22;100.00;100259.75;5029742;28;20037;-75
2022/12/21 07:24:22;;;;;;;23.63;9.85;;;;;;;5.18;100.00;100263.19;5031723;28;20171;-76
2022/12/21 07:26:48;;;;;;;23.25;10.77;;;;;;;5.11;100.00;100262.25;5034983;28;20033;-76
2022/12/21 07:29:13;;;;;;;21.42;9.65;;;;;;;5.13;100.00;100265.72;5034990;28;20037;-75
2022/12/21 07:31:38;;;;;;;22.42;10.82;;;;;;;5.15;100.00;100269.25;5033864;28;20500;-76
2022/12/21 07:34:04;;;;;;;22.63;10.60;;;;;;;5.19;100.00;100273.69;5035127;28;20507;-75
2022/12/21 07:36:29;;;;;;;24.95;11.25;;;;;;;5.12;100.00;100261.38;5034840;28;20483;-76
2022/12/21 07:38:55;;;;;;;22.25;10.57;;;;;;;5.16;100.00;100268.41;5035001;28;20622;-76
2022/12/21 07:41:21;;;;;;;25.00;11.55;;;;;;;5.24;100.00;100264.13;5033584;28;20029;-76
2022/12/21 07:43:47;;;;;;;21.70;10.13;;;;;;;5.34;100.00;100264.22;5034995;28;20057;-76
2022/12/21 07:46:24;;;;;;;25.50;12.98;;;;;;;5.42;100.00;100258.22;5031755;28;20053;-75
2022/12/21 07:48:52;;;;;;;21.70;10.30;;;;;;;5.48;100.00;100263.53;5033872;28;20033;-76
2022/12/21 07:51:17;;;;;;;20.38;10.50;;;;;;;5.53;100.00;100266.19;5034806;28;20228;-76
2022/12/21 07:53:42;;;;;;;21.65;10.38;;;;;;;5.45;100.00;100267.84;5034827;28;20136;-75
2022/12/21 07:56:13;;;;;;;25.58;12.02;;;;;;;5.46;100.00;100265.25;5034333;28;20538;-76
2022/12/21 07:58:38;;;;;;;26.85;13.35;;;;;;;5.39;100.00;100268.63;5031532;28;20042;-76
2022/12/21 08:01:09;;;;;;;23.85;11.77;;;;;;;5.39;100.00;100273.88;5034553;28;20095;-76
2022/12/21 08:03:35;;;;;;;25.48;10.73;;;;;;;5.44;100.00;100276.56;5034608;28;20099;-76
2022/12/21 08:06:00;;;;;;;24.85;11.25;;;;;;;5.47;100.00;100282.69;5034229;28;20045;-76
2022/12/21 08:08:26;;;;;;;22.63;11.50;;;;;;;5.53;100.00;100274.03;5035013;28;20037;-76
2022/12/21 08:10:51;;;;;;;23.15;11.02;;;;;;;5.59;100.00;100276.72;5034457;28;20064;-76
2022/12/21 08:13:16;;;;;;;24.48;11.57;;;;;;;5.62;100.00;100276.75;5034224;28;20033;-76
2022/12/21 08:15:42;;;;;;;25.02;12.85;;;;;;;5.69;100.00;100278.56;5034109;28;20400;-76
2022/12/21 08:18:07;;;;;;;22.25;9.95;;;;;;;5.77;100.00;100273.41;5034335;28;20403;-76
2022/12/21 08:20:33;;;;;;;21.20;9.27;;;;;;;5.86;100.00;100285.69;5034130;28;20033;-75
2022/12/21 08:22:58;;;;;;;18.88;8.65;;;;;;;5.90;100.00;100282.25;5034171;28;20099;-75
2022/12/21 08:25:24;;;;;;;22.25;9.45;;;;;;;5.92;100.00;100281.41;5033829;28;20053;-76
2022/12/21 08:27:50;;;;;;;21.35;9.38;;;;;;;5.96;100.00;100281.44;5041690;28;20041;-76
2022/12/21 08:30:15;;;;;;;21.23;9.35;;;;;;;5.91;100.00;100286.59;5033742;28;20028;-76
2022/12/21 08:32:41;;;;;;;19.70;9.30;;;;;;;5.94;100.00;100286.66;5034063;28;20037;-76
2022/12/21 08:35:06;;;;;;;24.30;10.55;;;;;;;5.89;100.00;100290.94;5033954;28;20038;-76
2022/12/21 08:37:32;;;;;;;23.58;10.20;;;;;;;5.94;100.00;100297.13;5033066;28;20056;-76
2022/12/21 08:39:57;;;;;;;20.55;9.13;;;;;;;5.96;100.00;100300.66;5032035;28;20037;-76
2022/12/21 08:42:22;;;;;;;19.63;9.32;;;;;;;5.93;100.00;100301.50;5033855;28;20045;-76
2022/12/21 08:44:48;;;;;;;29.27;12.55;;;;;;;5.93;100.00;100298.00;5033813;28;20044;-76
2022/12/21 08:47:14;;;;;;;23.63;9.45;;;;;;;5.98;100.00;100296.31;5032466;28;20446;-76
2022/12/21 08:49:39;;;;;;;20.67;8.90;;;;;;;6.03;100.00;100294.63;5033728;28;20048;-75
2022/12/21 08:52:05;;;;;;;22.17;8.98;;;;;;;6.07;100.00;100288.53;5033350;28;20029;-76
2022/12/21 08:54:30;;;;;;;22.15;8.80;;;;;;;6.13;100.00;100293.84;5033653;28;20514;-76
2022/12/21 08:56:56;;;;;;;23.83;10.05;;;;;;;6.04;100.00;100298.09;5033598;28;20041;-76
2022/12/21 08:59:21;;;;;;;18.20;7.97;;;;;;;5.99;100.00;100298.06;5032425;28;20037;-76
2022/12/21 09:01:47;;;;;;;21.83;9.98;;;;;;;6.01;100.00;100298.97;5033562;28;20033;-76
2022/12/21 09:04:12;;;;;;;23.35;9.82;;;;;;;6.03;100.00;100299.84;5032302;28;20458;-76
2022/12/21 09:06:38;;;;;;;20.88;9.55;;;;;;;6.03;100.00;100286.75;5033180;28;20038;-76
2022/12/21 09:09:03;;;;;;;21.75;8.70;;;;;;;6.04;100.00;100285.88;5033130;28;20030;-75
2022/12/21 09:11:29;;;;;;;21.38;9.18;;;;;;;6.07;100.00;100293.75;5032879;28;20044;-76
2022/12/21 09:13:54;;;;;;;20.35;9.57;;;;;;;6.08;100.00;100292.03;5046856;22;20052;-77
2022/12/21 09:16:22;;;;;;;21.58;8.48;;;;;;;6.14;100.00;100294.69;5033052;28;20045;-77
2022/12/21 09:18:48;;;;;;;23.02;9.63;;;;;;;6.19;100.00;100294.75;5041279;28;20116;-77
2022/12/21 09:21:15;;;;;;;23.98;10.95;;;;;;;6.20;100.00;100293.88;5033773;28;20036;-77
2022/12/21 09:23:42;;;;;;;21.42;9.32;;;;;;;6.20;100.00;100296.50;5049159;28;20036;-76
2022/12/21 09:26:08;;;;;;;21.90;9.85;;;;;;;6.20;100.00;100301.72;5053081;28;20037;-77
2022/12/21 09:28:34;;;;;;;24.80;9.88;;;;;;;6.13;100.00;100295.53;5053153;28;20029;-77
2022/12/21 09:31:15;;;;;;;20.63;10.25;;;;;;;6.11;100.00;100289.44;5053160;28;20033;-77
2022/12/21 09:33:41;;;;;;;19.33;8.85;;;;;;;6.09;100.00;100293.78;5050365;28;20072;-77
2022/12/21 09:36:08;;;;;;;19.13;9.15;;;;;;;6.15;100.00;100289.47;5052913;28;20078;-77
2022/12/21 09:38:34;;;;;;;27.55;11.43;;;;;;;6.19;100.00;100306.09;5053047;28;20036;-77
2022/12/21 09:41:20;;;;;;;25.20;10.52;;;;;;;6.26;100.00;100293.91;5053149;28;20036;-77
2022/12/21 09:44:23;;;;;;;24.85;11.18;;;;;;;6.34;100.00;100292.22;5051595;28;20510;-76
2022/12/21 09:46:52;;;;;;;21.55;9.57;;;;;;;6.39;100.00;100293.13;5049469;28;20040;-77
2022/12/21 09:49:25;;;;;;;23.35;10.73;;;;;;;6.33;100.00;100290.47;5051571;28;20048;-77
2022/12/21 09:51:57;;;;;;;23.77;9.43;;;;;;;6.34;100.00;100286.97;5052996;28;20067;-77
2022/12/21 09:54:47;;;;;;;21.08;8.48;;;;;;;6.39;100.00;100282.63;5050004;28;20033;-77
2022/12/21 09:57:13;;;;;;;21.88;8.95;;;;;;;6.31;100.00;100279.09;5049984;28;20037;-77
2022/12/21 09:59:39;;;;;;;18.67;8.20;;;;;;;6.28;100.00;100274.72;5052654;28;20021;-77
2022/12/21 10:02:23;;;;;;;22.50;9.85;;;;;;;6.28;100.00;100284.31;5052861;28;20040;-77
2022/12/21 10:05:31;;;;;;;20.73;9.65;;;;;;;6.31;100.00;100279.09;5050800;28;20033;-77
2022/12/21 10:08:06;;;;;;;21.55;10.30;;;;;;;6.36;100.00;100266.91;5045266;28;20041;-77
2022/12/21 10:10:38;;;;;;;18.67;9.10;;;;;;;6.41;100.00;100269.56;5052749;28;20105;-76
2022/12/21 10:13:12;;;;;;;;;;;;;;;6.45;100.00;100263.47;5053132;28;20491;-77
2022/12/21 10:16:08;;;;;;;19.15;9.02;;;;;;;6.50;100.00;100264.38;5052799;28;19921;-77
2022/12/21 10:18:47;;;;;;;22.05;9.20;;;;;;;6.53;100.00;100259.16;5052837;28;20434;-77
2022/12/21 10:21:47;;;;;;;19.23;7.97;;;;;;;6.66;100.00;100255.72;5050546;28;20041;-77
2022/12/21 10:24:23;;;;;;;24.15;9.73;;;;;;;6.72;100.00;100258.38;5051805;28;20036;-77
2022/12/21 10:26:59;;;;;;;17.55;8.50;;;;;;;6.71;100.00;100255.75;5049735;28;20075;-77
2022/12/21 10:29:34;;;;;;;18.10;8.55;;;;;;;6.70;100.00;100260.09;5053509;28;20116;-77
2022/12/21 10:32:00;;;;;;;17.58;8.10;;;;;;;6.63;100.00;100260.97;5049807;28;20029;-77
2022/12/21 10:34:36;;;;;;;18.80;8.73;;;;;;;6.71;100.00;100255.75;5052983;28;20045;-77
2022/12/21 10:37:19;;;;;;;17.17;7.88;;;;;;;6.72;100.00;100244.41;5052384;28;20044;-77
2022/12/21 10:39:48;;;;;;;14.98;7.00;;;;;;;6.72;100.00;100245.25;5053002;28;20040;-77
2022/12/21 10:42:30;;;;;;;22.73;8.38;;;;;;;6.78;100.00;100239.16;5052975;28;20040;-77
2022/12/21 10:44:57;;;;;;;19.48;8.13;;;;;;;6.85;100.00;100233.09;5052742;28;20032;-76
2022/12/21 10:47:23;;;;;;;17.83;8.13;;;;;;;6.89;100.00;100233.97;5049755;28;20068;-77
2022/12/21 10:50:01;;;;;;;15.88;7.50;;;;;;;6.92;100.00;100237.50;5052412;28;20134;-77
2022/12/21 10:52:48;;;;;;;17.27;8.05;;;;;;;6.93;100.00;100241.00;5050523;28;20098;-77
2022/12/21 10:55:31;;;;;;;18.80;8.77;;;;;;;6.98;100.00;100236.63;5051218;28;20056;-77
2022/12/21 10:58:16;;;;;;;;;;;;;;;7.00;100.00;100229.66;5050698;28;20037;-77
2022/12/21 11:00:51;;;;;;;21.63;8.90;;;;;;;7.06;100.00;100234.03;5045720;28;19913;-77
2022/12/21 11:03:36;;;;;;;18.92;7.88;;;;;;;7.05;100.00;100227.03;5050772;28;20595;-77
2022/12/21 11:06:15;;;;;;;17.80;7.10;;;;;;;6.94;100.00;100224.38;5051116;28;20095;-77
2022/12/21 11:08:47;;;;;;;17.60;7.78;;;;;;;6.89;100.00;100231.34;5052828;28;20037;-77
2022/12/21 11:11:37;;;;;;;18.73;7.95;;;;;;;6.80;100.00;100225.19;5052797;28;20052;-77
2022/12/21 11:14:14;;;;;;;17.48;8.57;;;;;;;6.85;100.00;100222.59;5041799;28;20056;-77
2022/12/21 11:16:40;;;;;;;17.48;7.55;;;;;;;6.92;100.00;100227.00;5048768;28;20040;-77
2022/12/21 11:19:11;;;;;;;17.45;7.88;;;;;;;7.01;100.00;100216.53;5052372;28;20427;-77
2022/12/21 11:21:40;;;;;;;22.20;8.77;;;;;;;7.07;100.00;100212.16;5052741;28;20052;-77
2022/12/21 11:24:39;;;;;;;16.92;7.60;;;;;;;7.11;100.00;100212.19;5051731;28;20033;-77
2022/12/21 11:27:10;;;;;;;16.80;7.68;;;;;;;7.19;100.00;100210.44;5043994;28;20041;-77
2022/12/21 11:29:47;;;;;;;15.90;8.55;;;;;;;7.24;100.00;100207.84;5052316;28;20037;-77
2022/12/21 11:32:15;;;;;;;16.08;7.85;;;;;;;7.28;100.00;100204.34;5049346;28;20037;-77
2022/12/21 11:34:47;;;;;;;14.30;7.43;;;;;;;7.30;100.00;100197.34;5052301;28;20060;-77
2022/12/21 11:37:43;;;;;;;15.60;6.57;;;;;;;7.36;100.00;100197.38;5052508;28;20043;-77
2022/12/21 11:40:11;;;;;;;17.95;6.70;;;;;;;7.41;100.00;100193.00;5040400;28;20091;-77
2022/12/21 11:43:02;;;;;;;15.35;7.40;;;;;;;7.46;100.00;100193.88;5052520;28;20045;-77